Time;durP1;ratioP1;P1;durP2;ratioP2;P2;SDS_P1;SDS_P2;PMS_P1;PMS_P2;Temp;Humidity;BMP_temperature;BMP_pressure;BME280_temperature;BME280_humidity;BME280_pressure;Samples;Min_cycle;Max_cycle;Signal;HPM_P1;HPM_P2
2023/12/25 00:01:51;;;;;;;14.07;6.82;;;;;;;6.15;99.34;92947.91;5137264;27;20043;-73
2023/12/25 00:04:18;;;;;;;15.18;8.23;;;;;;;6.05;99.29;92913.50;5129572;27;20050;-73
2023/12/25 00:06:45;;;;;;;15.65;6.95;;;;;;;6.40;98.90;92961.94;5132229;27;20901;-73
2023/12/25 00:09:12;;;;;;;15.27;7.45;;;;;;;6.44;98.75;92962.34;5135426;27;20043;-73
2023/12/25 00:11:39;;;;;;;13.50;7.57;;;;;;;6.43;98.65;92956.44;5131259;27;20522;-72
2023/12/25 00:14:06;;;;;;;13.82;7.00;;;;;;;6.50;97.99;92957.28;5138181;27;20043;-72
2023/12/25 00:16:34;;;;;;;25.65;13.25;;;;;;;6.49;97.42;92950.59;5134433;27;20043;-73
2023/12/25 00:19:01;;;;;;;27.67;16.08;;;;;;;6.41;97.22;92948.22;5129617;27;20043;-73
2023/12/25 00:21:28;;;;;;;21.77;11.98;;;;;;;6.29;97.33;92945.41;5135622;27;20053;-72
2023/12/25 00:23:56;;;;;;;20.00;10.85;;;;;;;6.33;97.56;92945.81;5133028;27;20043;-73
2023/12/25 00:26:23;;;;;;;15.07;9.35;;;;;;;6.23;98.59;92956.38;5137784;27;20076;-73
2023/12/25 00:28:50;;;;;;;16.02;7.93;;;;;;;6.24;98.64;92952.84;5134185;27;20069;-73
2023/12/25 00:31:17;;;;;;;17.17;7.50;;;;;;;6.15;99.12;92942.00;5136006;27;20069;-73
2023/12/25 00:33:45;;;;;;;15.07;7.72;;;;;;;6.17;99.43;92947.72;5137840;27;20495;-73
2023/12/25 00:36:13;;;;;;;12.55;5.00;;;;;;;5.95;100.00;92939.31;5134197;27;20055;-73
2023/12/25 00:38:40;;;;;;;11.05;4.20;;;;;;;5.83;100.00;92916.91;5132561;27;20062;-73
2023/12/25 00:41:06;;;;;;;11.75;3.72;;;;;;;6.07;100.00;92940.38;5142642;27;20058;-73
2023/12/25 00:43:33;;;;;;;10.38;3.92;;;;;;;6.08;100.00;92938.63;5132499;27;20051;-73
2023/12/25 00:46:05;;;;;;;11.82;3.50;;;;;;;6.30;100.00;92949.56;5132230;27;20047;-73
2023/12/25 00:48:32;;;;;;;9.95;3.10;;;;;;;6.43;100.00;92948.81;5135137;27;20043;-73
2023/12/25 00:51:00;;;;;;;7.07;3.40;;;;;;;6.45;100.00;92938.41;5143115;27;20413;-73
2023/12/25 00:53:27;;;;;;;7.60;3.35;;;;;;;6.60;99.88;92949.28;5133547;27;20051;-73
2023/12/25 00:55:54;;;;;;;12.43;5.60;;;;;;;6.65;98.96;92938.47;5138797;27;20589;-73
2023/12/25 00:58:21;;;;;;;10.50;4.82;;;;;;;6.71;98.28;92939.50;5138066;27;20096;-73
2023/12/25 01:00:48;;;;;;;9.65;4.40;;;;;;;6.60;98.09;92944.16;5135980;27;20065;-74
2023/12/25 01:03:16;;;;;;;12.50;3.67;;;;;;;6.59;98.68;92942.59;5136896;27;20047;-73
2023/12/25 01:05:43;;;;;;;9.32;3.33;;;;;;;6.49;99.02;92939.59;5136092;27;20632;-74
2023/12/25 01:08:11;;;;;;;10.93;3.72;;;;;;;6.61;98.74;92935.53;5130974;27;20055;-73
2023/12/25 01:10:38;;;;;;;7.82;4.32;;;;;;;6.76;98.01;92935.38;5132844;27;20047;-73
2023/12/25 01:13:05;;;;;;;74.38;42.83;;;;;;;6.77;97.85;92936.94;5133882;27;20045;-73
2023/12/25 01:15:32;;;;;;;29.95;16.08;;;;;;;6.83;96.76;92948.16;5137847;27;20034;-73
2023/12/25 01:17:58;;;;;;;9.82;4.60;;;;;;;6.80;96.43;92946.78;5130568;27;20161;-73
2023/12/25 01:20:26;;;;;;;9.82;4.85;;;;;;;6.54;97.73;92948.25;5134853;27;20092;-73
2023/12/25 01:22:52;;;;;;;11.75;5.82;;;;;;;6.67;97.33;92947.50;5134559;27;20055;-74
2023/12/25 01:25:21;;;;;;;11.85;5.72;;;;;;;6.62;97.47;92946.53;5141868;27;20410;-73
2023/12/25 01:27:48;;;;;;;14.18;8.27;;;;;;;6.70;97.23;92948.91;5143796;27;20057;-73
2023/12/25 01:30:15;;;;;;;132.73;77.80;;;;;;;6.76;96.81;92949.91;5134864;27;20823;-73
2023/12/25 01:32:42;;;;;;;60.13;38.13;;;;;;;6.61;96.49;92919.44;5138708;27;20055;-73
2023/12/25 01:35:09;;;;;;;21.13;12.27;;;;;;;6.62;96.61;92934.53;5136383;27;20049;-73
2023/12/25 01:37:36;;;;;;;18.42;9.40;;;;;;;6.57;97.13;92939.44;5130875;27;20910;-73
2023/12/25 01:40:04;;;;;;;24.63;14.45;;;;;;;6.61;97.35;92937.31;5133763;27;20039;-73
2023/12/25 01:42:32;;;;;;;16.63;7.75;;;;;;;6.61;97.41;92932.19;5141662;27;20042;-73
2023/12/25 01:44:59;;;;;;;18.60;9.85;;;;;;;6.63;97.40;92932.78;5133462;27;20039;-73
2023/12/25 01:47:26;;;;;;;15.43;5.20;;;;;;;6.61;97.51;92929.66;5134397;27;20051;-73
2023/12/25 01:49:53;;;;;;;14.70;6.65;;;;;;;6.49;98.35;92929.41;5132554;27;20047;-73
2023/12/25 01:52:20;;;;;;;15.68;5.15;;;;;;;6.48;98.21;92927.84;5132232;27;20050;-73
2023/12/25 01:54:48;;;;;;;19.08;10.15;;;;;;;6.46;97.97;92927.22;5131255;27;20512;-73
2023/12/25 01:57:15;;;;;;;18.42;10.43;;;;;;;6.60;97.15;92931.41;5140257;27;20039;-73
2023/12/25 01:59:43;;;;;;;13.50;4.90;;;;;;;6.58;97.04;92928.28;5131883;27;20047;-73
2023/12/25 02:02:10;;;;;;;12.38;5.63;;;;;;;6.65;96.99;92934.16;5131287;27;20053;-73
2023/12/25 02:04:37;;;;;;;13.55;6.78;;;;;;;6.73;96.99;92938.31;5130494;27;20047;-73
2023/12/25 02:07:04;;;;;;;11.57;5.90;;;;;;;6.69;97.40;92934.56;5133186;27;20057;-73
2023/12/25 02:09:31;;;;;;;9.15;4.18;;;;;;;6.64;97.04;92924.94;5135397;27;20532;-73
2023/12/25 02:11:58;;;;;;;13.65;6.63;;;;;;;6.82;96.40;92934.59;5131683;27;20070;-73
2023/12/25 02:14:25;;;;;;;11.93;5.13;;;;;;;6.92;95.74;92930.88;5132811;27;20044;-73
2023/12/25 02:16:53;;;;;;;14.75;4.60;;;;;;;7.03;94.71;92939.75;5141790;27;20053;-73
2023/12/25 02:19:28;;;;;;;12.43;3.92;;;;;;;7.13;94.38;92942.69;5130326;27;20055;-74
2023/12/25 02:21:56;;;;;;;11.55;4.07;;;;;;;7.21;93.92;92937.41;5133847;27;20047;-73
2023/12/25 02:24:28;;;;;;;8.40;3.47;;;;;;;7.21;93.13;92923.84;5131283;27;20727;-73
2023/12/25 02:26:57;;;;;;;10.43;3.80;;;;;;;7.26;93.05;92931.72;5135530;27;20069;-73
2023/12/25 02:29:24;;;;;;;8.98;4.25;;;;;;;7.38;92.69;92947.25;5134834;27;20043;-74
2023/12/25 02:31:51;;;;;;;11.52;4.60;;;;;;;7.47;91.56;92943.53;5131951;27;20047;-74
2023/12/25 02:34:18;;;;;;;10.82;4.43;;;;;;;7.51;91.08;92945.69;5135808;27;20085;-73
2023/12/25 02:36:45;;;;;;;10.02;4.45;;;;;;;7.47;91.52;92945.28;5132033;27;20047;-73
2023/12/25 02:39:12;;;;;;;12.88;5.20;;;;;;;7.53;91.09;92952.16;5130350;27;20363;-73
2023/12/25 02:41:39;;;;;;;14.35;7.15;;;;;;;7.36;90.75;92921.09;5131211;27;20154;-73
2023/12/25 02:44:07;;;;;;;13.02;6.38;;;;;;;7.44;91.11;92955.88;5137133;27;20757;-73
2023/12/25 02:46:34;;;;;;;22.27;6.13;;;;;;;7.35;91.41;92955.28;5130075;27;20051;-73
2023/12/25 02:49:01;;;;;;;12.00;5.00;;;;;;;7.41;90.90;92951.97;5132187;27;20051;-73
2023/12/25 02:51:28;;;;;;;11.15;4.25;;;;;;;7.35;91.15;92945.88;5131492;27;20078;-73
2023/12/25 02:53:55;;;;;;;8.52;3.53;;;;;;;7.32;91.15;92941.16;5129750;27;20053;-73
2023/12/25 02:56:22;;;;;;;11.48;4.57;;;;;;;7.32;90.79;92951.38;5130152;27;20051;-73
2023/12/25 02:58:49;;;;;;;13.77;6.35;;;;;;;7.21;90.59;92955.28;5128214;27;20053;-73
2023/12/25 03:01:17;;;;;;;16.20;6.97;;;;;;;7.11;91.15;92954.09;5131493;27;20053;-75
2023/12/25 03:03:44;;;;;;;10.93;6.00;;;;;;;7.01;92.12;92959.56;5135422;27;20062;-74
2023/12/25 03:06:11;;;;;;;12.93;6.57;;;;;;;7.01;92.35;92949.38;5130316;27;20512;-75
2023/12/25 03:08:38;;;;;;;12.80;5.82;;;;;;;7.05;92.22;92953.13;5139184;27;20054;-75
2023/12/25 03:11:05;;;;;;;9.90;3.50;;;;;;;7.02;92.54;92959.41;5140719;27;20039;-74
2023/12/25 03:13:32;;;;;;;9.43;3.70;;;;;;;7.04;92.80;92970.19;5132000;27;20043;-75
2023/12/25 03:15:59;;;;;;;9.93;4.15;;;;;;;7.07;93.17;92969.81;5132874;27;20495;-75
2023/12/25 03:18:27;;;;;;;9.13;3.13;;;;;;;7.08;92.98;92968.84;5129950;27;20039;-74
2023/12/25 03:20:55;;;;;;;6.50;2.88;;;;;;;7.10;93.30;92976.31;5133608;27;20035;-74
2023/12/25 03:23:22;;;;;;;9.13;3.28;;;;;;;7.04;93.62;92970.19;5132496;27;20039;-75
2023/12/25 03:25:49;;;;;;;9.55;3.08;;;;;;;7.09;93.11;92975.50;5129256;27;20402;-75
2023/12/25 03:28:16;;;;;;;6.63;2.50;;;;;;;7.09;92.94;92977.28;5131360;27;20051;-75
2023/12/25 03:30:43;;;;;;;5.47;2.35;;;;;;;7.14;92.73;92976.69;5133816;27;20053;-75
2023/12/25 03:33:10;;;;;;;6.05;2.90;;;;;;;7.11;92.67;92967.66;5131553;27;20061;-74
2023/12/25 03:35:38;;;;;;;5.30;2.85;;;;;;;7.03;92.76;92973.72;5141839;27;20043;-75
2023/12/25 03:38:05;;;;;;;12.55;5.65;;;;;;;6.93;92.71;92969.00;5134085;27;20047;-75
2023/12/25 03:40:33;;;;;;;10.93;5.53;;;;;;;6.93;92.76;92974.09;5132671;27;20047;-75
2023/12/25 03:43:00;;;;;;;14.50;7.07;;;;;;;6.93;93.04;92978.41;5132485;27;20049;-74
2023/12/25 03:45:27;;;;;;;18.80;8.90;;;;;;;6.98;93.03;92977.84;5133569;27;20043;-73
2023/12/25 03:47:53;;;;;;;18.70;9.05;;;;;;;6.94;93.50;92972.31;5132994;27;20043;-73
2023/12/25 03:50:20;;;;;;;12.98;7.10;;;;;;;6.88;93.84;92968.00;5128361;27;20065;-73
2023/12/25 03:52:49;;;;;;;11.68;6.07;;;;;;;6.83;94.63;92968.56;5128341;27;20047;-73
2023/12/25 03:55:16;;;;;;;8.20;4.63;;;;;;;6.83;94.72;92966.03;5139534;27;20054;-74
2023/12/25 03:57:43;;;;;;;9.15;3.60;;;;;;;6.70;94.71;92955.78;5131114;27;20410;-74
2023/12/25 04:00:11;;;;;;;6.97;4.15;;;;;;;6.79;94.87;92973.28;5127997;27;20046;-74
2023/12/25 04:02:38;;;;;;;11.07;4.72;;;;;;;6.81;94.67;92978.22;5134378;27;20509;-73
2023/12/25 04:05:04;;;;;;;6.03;3.33;;;;;;;6.78;94.97;92964.06;5128041;27;20047;-73
2023/12/25 04:07:31;;;;;;;6.78;3.30;;;;;;;6.86;94.36;92969.97;5132643;27;20043;-73
2023/12/25 04:10:00;;;;;;;9.05;4.30;;;;;;;6.77;94.68;92959.91;5130547;27;20055;-74
2023/12/25 04:12:27;;;;;;;8.85;4.20;;;;;;;6.77;94.66;92954.81;5134857;27;20069;-73
2023/12/25 04:14:54;;;;;;;21.45;8.43;;;;;;;6.88;94.23;92966.22;5141567;27;20050;-73
2023/12/25 04:17:21;;;;;;;20.27;9.35;;;;;;;6.89;94.02;92977.25;5138422;27;20560;-73
2023/12/25 04:19:48;;;;;;;22.42;11.52;;;;;;;6.78;93.91;92958.16;5132239;27;20082;-73
2023/12/25 04:22:15;;;;;;;15.00;6.95;;;;;;;6.82;93.58;92972.88;5130730;27;20051;-73
2023/12/25 04:24:42;;;;;;;8.35;4.63;;;;;;;6.84;93.77;92990.56;5134450;27;20414;-73
2023/12/25 04:27:10;;;;;;;9.20;4.45;;;;;;;6.85;93.48;92993.91;5133566;27;20083;-73
2023/12/25 04:29:37;;;;;;;13.40;5.30;;;;;;;6.87;93.39;92987.66;5134548;27;20049;-74
2023/12/25 04:32:05;;;;;;;11.32;5.95;;;;;;;6.78;93.85;92974.28;5134336;27;20035;-73
2023/12/25 04:34:32;;;;;;;10.55;4.68;;;;;;;6.72;94.23;92982.69;5132443;27;20053;-73
2023/12/25 04:36:59;;;;;;;9.23;4.28;;;;;;;6.81;94.04;92985.88;5129499;27;20047;-73
2023/12/25 04:39:26;;;;;;;11.80;4.90;;;;;;;6.86;94.04;92977.63;5131684;27;20039;-73
2023/12/25 04:41:52;;;;;;;7.40;4.30;;;;;;;6.86;94.08;92990.38;5127945;27;20047;-73
2023/12/25 04:44:21;;;;;;;9.57;4.70;;;;;;;6.92;93.62;92992.16;5124449;27;20053;-73
2023/12/25 04:46:48;;;;;;;9.98;4.82;;;;;;;6.82;93.75;93000.97;5127548;27;20774;-73
2023/12/25 04:49:15;;;;;;;10.68;4.97;;;;;;;6.84;93.59;93000.00;5125580;27;20050;-73
2023/12/25 04:51:41;;;;;;;10.88;4.75;;;;;;;6.82;93.81;92997.66;5126241;27;21846;-73
2023/12/25 04:54:08;;;;;;;10.95;4.22;;;;;;;6.84;93.73;92984.69;5128225;27;20050;-73
2023/12/25 04:56:35;;;;;;;7.68;4.13;;;;;;;6.81;93.54;92996.06;5131305;27;20069;-73
2023/12/25 04:59:02;;;;;;;9.65;3.60;;;;;;;6.84;93.58;93000.78;5128981;27;20049;-73
2023/12/25 05:01:30;;;;;;;7.45;3.42;;;;;;;6.88;93.51;93007.09;5127597;27;20406;-73
2023/12/25 05:03:57;;;;;;;8.23;3.47;;;;;;;6.86;93.23;93009.06;5135500;27;20069;-73
2023/12/25 05:06:24;;;;;;;10.02;3.60;;;;;;;6.75;93.23;92995.06;5141655;27;20043;-73
2023/12/25 05:08:51;;;;;;;10.00;3.67;;;;;;;6.81;93.66;93007.06;5137134;27;20047;-73
2023/12/25 05:11:19;;;;;;;7.35;2.35;;;;;;;6.73;93.90;93009.78;5131644;27;20498;-73
2023/12/25 05:13:46;;;;;;;7.60;2.83;;;;;;;6.82;93.90;93025.72;5131057;27;20058;-73
2023/12/25 05:16:14;;;;;;;6.78;2.53;;;;;;;6.91;93.31;93016.13;5132524;27;20532;-74
2023/12/25 05:18:42;;;;;;;7.50;3.60;;;;;;;6.89;93.37;92997.69;5143544;27;20065;-73
2023/12/25 05:21:09;;;;;;;8.13;3.75;;;;;;;6.84;93.58;93013.53;5134787;27;20482;-73
2023/12/25 05:23:36;;;;;;;7.75;3.97;;;;;;;6.89;93.21;93011.22;5131804;27;20072;-73
2023/12/25 05:26:03;;;;;;;11.85;5.93;;;;;;;6.80;93.18;92987.63;5131663;27;20048;-74
2023/12/25 05:28:30;;;;;;;10.05;4.60;;;;;;;6.83;93.58;93017.09;5135493;27;20073;-74
2023/12/25 05:30:57;;;;;;;12.93;5.30;;;;;;;6.90;93.27;93017.13;5133656;27;20049;-73
2023/12/25 05:33:24;;;;;;;8.43;3.60;;;;;;;6.83;93.21;93017.09;5134317;27;20047;-72
2023/12/25 05:35:52;;;;;;;7.65;3.55;;;;;;;6.84;93.61;93023.00;5133094;27;20050;-73
2023/12/25 05:38:19;;;;;;;13.20;4.88;;;;;;;6.89;93.73;93020.66;5138478;27;20052;-73
2023/12/25 05:40:46;;;;;;;9.85;4.07;;;;;;;6.88;93.57;93019.06;5140322;27;20043;-73
2023/12/25 05:43:13;;;;;;;9.23;4.40;;;;;;;6.84;93.50;93013.53;5141109;27;20057;-73
2023/12/25 05:45:40;;;;;;;11.30;5.18;;;;;;;6.64;93.79;92990.50;5133062;27;20905;-73
2023/12/25 05:48:08;;;;;;;11.50;4.90;;;;;;;6.84;93.59;93013.53;5142663;27;20059;-73
2023/12/25 05:50:35;;;;;;;8.57;3.72;;;;;;;6.84;93.64;93010.22;5137789;27;20585;-73
2023/12/25 05:53:04;;;;;;;8.63;3.78;;;;;;;6.90;93.22;93010.22;5137860;27;20074;-73
2023/12/25 05:55:31;;;;;;;8.68;3.83;;;;;;;6.95;92.85;93017.34;5137071;27;20051;-73
2023/12/25 05:57:59;;;;;;;7.00;3.45;;;;;;;6.93;92.68;93017.53;5135955;27;20125;-73
2023/12/25 06:00:25;;;;;;;8.70;4.30;;;;;;;6.93;92.69;93019.28;5131490;27;20507;-73
2023/12/25 06:02:52;;;;;;;11.48;4.43;;;;;;;7.02;92.48;93007.13;5138811;27;20043;-73
2023/12/25 06:05:19;;;;;;;7.90;3.60;;;;;;;7.01;91.81;93010.66;5138294;27;20045;-73
2023/12/25 06:07:46;;;;;;;10.57;4.32;;;;;;;7.09;91.35;93015.59;5132346;27;20065;-73
2023/12/25 06:10:15;;;;;;;11.23;4.65;;;;;;;7.10;91.22;93027.38;5131378;27;20043;-73
2023/12/25 06:12:42;;;;;;;11.38;4.95;;;;;;;7.08;91.07;93040.34;5137487;27;20042;-73
2023/12/25 06:15:10;;;;;;;12.98;6.00;;;;;;;6.95;90.76;93009.66;5141797;27;20165;-73
2023/12/25 06:17:37;;;;;;;13.30;7.15;;;;;;;7.13;90.96;93055.09;5144873;27;20103;-73
2023/12/25 06:20:06;;;;;;;15.77;7.60;;;;;;;7.20;89.62;93048.25;5142875;27;20045;-73
2023/12/25 06:22:33;;;;;;;12.43;6.50;;;;;;;7.19;89.63;93056.09;5137850;27;20047;-73
2023/12/25 06:25:00;;;;;;;28.85;13.07;;;;;;;7.24;90.25;93048.66;5133764;27;20043;-73
2023/12/25 06:27:28;;;;;;;17.13;9.40;;;;;;;7.16;90.33;93033.47;5132525;27;20047;-73
2023/12/25 06:29:55;;;;;;;13.80;7.25;;;;;;;7.18;90.25;93051.97;5131763;27;20051;-73
2023/12/25 06:32:22;;;;;;;15.13;7.07;;;;;;;7.27;89.79;93055.13;5131041;27;20059;-72
2023/12/25 06:34:49;;;;;;;14.85;7.45;;;;;;;7.17;90.05;93061.41;5135754;27;20054;-73
2023/12/25 06:37:15;;;;;;;16.13;9.38;;;;;;;7.20;89.35;93050.81;5131979;27;20039;-73
2023/12/25 06:39:42;;;;;;;16.38;10.05;;;;;;;7.25;89.16;93072.41;5132360;27;20069;-73
2023/12/25 06:42:09;;;;;;;16.80;8.88;;;;;;;7.33;89.21;93059.47;5145397;27;20039;-73
2023/12/25 06:44:39;;;;;;;12.93;7.90;;;;;;;7.35;89.22;93052.41;5130209;27;20055;-73
2023/12/25 06:47:06;;;;;;;16.27;7.65;;;;;;;7.31;89.38;93052.00;5134602;27;20050;-73
2023/12/25 06:49:33;;;;;;;13.15;7.22;;;;;;;7.30;89.03;93052.19;5134837;27;20047;-74
2023/12/25 06:52:00;;;;;;;13.50;6.88;;;;;;;7.38;89.64;93064.81;5135698;27;20055;-74
2023/12/25 06:54:27;;;;;;;17.67;6.75;;;;;;;7.39;89.39;93065.56;5136777;27;20043;-75
2023/12/25 06:56:54;;;;;;;19.83;8.02;;;;;;;7.46;89.42;93076.63;5135625;27;20051;-74
2023/12/25 06:59:21;;;;;;;15.15;8.48;;;;;;;7.58;89.29;93074.25;5134030;27;20051;-74
2023/12/25 07:01:49;;;;;;;18.38;10.93;;;;;;;7.66;89.69;93071.53;5140054;27;20233;-74
2023/12/25 07:04:16;;;;;;;16.17;7.45;;;;;;;7.75;88.87;93072.13;5140617;27;20047;-74
2023/12/25 07:06:43;;;;;;;13.32;7.00;;;;;;;7.90;88.27;93069.38;5133712;27;20146;-75
2023/12/25 07:09:14;;;;;;;14.90;7.18;;;;;;;8.08;87.81;93066.25;5132951;27;20043;-74
2023/12/25 07:11:41;;;;;;;9.90;5.35;;;;;;;8.22;86.63;93071.34;5132074;27;20137;-74
2023/12/25 07:14:08;;;;;;;10.25;4.80;;;;;;;8.43;84.96;93068.56;5138405;27;20043;-74
2023/12/25 07:16:35;;;;;;;12.82;5.32;;;;;;;8.63;84.93;93079.78;5142120;27;20069;-76
2023/12/25 07:19:04;;;;;;;14.13;5.57;;;;;;;8.65;83.79;93049.63;5138897;27;20039;-74
2023/12/25 07:21:31;;;;;;;13.88;6.15;;;;;;;9.01;83.33;93084.22;5138809;27;20072;-74
2023/12/25 07:23:58;;;;;;;19.00;10.05;;;;;;;9.16;83.14;93083.19;5134985;27;20171;-74
2023/12/25 07:26:25;;;;;;;23.92;10.75;;;;;;;9.12;81.63;93059.72;5128813;27;20053;-73
2023/12/25 07:28:52;;;;;;;11.38;5.28;;;;;;;9.46;81.01;93095.47;5135420;27;20034;-74
2023/12/25 07:31:20;;;;;;;7.38;3.70;;;;;;;9.57;79.76;93083.75;5132056;27;20057;-74
2023/12/25 07:33:47;;;;;;;9.60;4.03;;;;;;;9.75;79.56;93096.69;5135385;27;20069;-74
2023/12/25 07:36:16;;;;;;;10.35;6.03;;;;;;;9.85;79.67;93101.34;5133822;27;20048;-74
2023/12/25 07:38:43;;;;;;;15.00;7.63;;;;;;;10.00;78.86;93105.41;5132823;27;20960;-73
2023/12/25 07:41:10;;;;;;;20.38;9.15;;;;;;;10.11;77.64;93097.03;5137151;27;20049;-73
2023/12/25 07:43:37;;;;;;;19.75;9.52;;;;;;;10.28;77.13;93102.41;5136785;27;20042;-74
2023/12/25 07:46:06;;;;;;;21.80;9.93;;;;;;;10.38;76.51;93094.22;5134288;27;20066;-74
2023/12/25 07:48:33;;;;;;;27.45;10.50;;;;;;;10.63;75.80;93110.63;5134093;27;20046;-74
2023/12/25 07:51:00;;;;;;;20.20;9.80;;;;;;;10.74;75.89;93101.47;5128460;27;20130;-73
2023/12/25 07:53:29;;;;;;;19.33;10.27;;;;;;;10.75;75.18;93077.34;5136640;27;20134;-73
2023/12/25 07:55:56;;;;;;;13.32;7.57;;;;;;;11.05;74.50;93107.44;5135018;27;20042;-73
2023/12/25 07:58:23;;;;;;;17.75;7.05;;;;;;;11.20;73.86;93107.09;5131229;27;20414;-73
2023/12/25 08:00:50;;;;;;;11.13;5.93;;;;;;;11.35;71.12;93106.72;5135678;27;20039;-74
2023/12/25 08:03:17;;;;;;;9.32;3.95;;;;;;;11.50;69.63;93111.50;5134742;27;20418;-74
2023/12/25 08:05:44;;;;;;;5.82;3.10;;;;;;;11.68;68.98;93122.75;5141478;27;20053;-74
2023/12/25 08:08:11;;;;;;;5.68;2.85;;;;;;;11.88;69.32;93122.47;5136365;27;20073;-73
2023/12/25 08:10:39;;;;;;;5.75;2.13;;;;;;;11.98;67.64;93124.50;5133397;27;20049;-73
2023/12/25 08:13:06;;;;;;;7.97;2.22;;;;;;;12.10;64.98;93116.84;5130323;27;20050;-73
2023/12/25 08:15:33;;;;;;;5.78;2.30;;;;;;;12.16;66.75;93106.44;5132603;27;20546;-74
2023/12/25 08:18:00;;;;;;;5.80;2.28;;;;;;;12.36;65.61;93120.78;5130058;27;20372;-73
2023/12/25 08:20:27;;;;;;;10.05;5.72;;;;;;;12.51;65.65;93115.19;5130717;27;20050;-73
2023/12/25 08:23:08;;;;;;;11.40;5.05;;;;;;;12.50;63.78;93080.13;5132265;27;20049;-73
2023/12/25 08:25:35;;;;;;;11.15;7.78;;;;;;;12.89;62.94;93123.50;5133660;27;20074;-73
2023/12/25 08:28:03;;;;;;;12.18;4.93;;;;;;;13.04;61.74;93124.81;5134543;27;20053;-73
2023/12/25 08:30:30;;;;;;;26.85;24.15;;;;;;;13.26;60.92;93125.00;5134251;27;20123;-73
2023/12/25 08:32:57;;;;;;;10.60;8.02;;;;;;;13.33;58.78;93101.66;5128016;27;20085;-74
2023/12/25 08:35:24;;;;;;;8.15;4.40;;;;;;;13.51;59.09;93111.03;5130030;27;20058;-74
2023/12/25 08:37:51;;;;;;;8.63;3.80;;;;;;;13.60;57.93;93111.47;5130945;27;20398;-74
2023/12/25 08:40:18;;;;;;;6.63;3.83;;;;;;;13.71;58.39;93108.03;5133815;27;20046;-73
2023/12/25 08:42:45;;;;;;;7.95;3.13;;;;;;;13.85;57.86;93108.53;5135137;27;20046;-74
2023/12/25 08:45:14;;;;;;;6.97;3.05;;;;;;;13.97;57.47;93105.91;5133052;27;20043;-74
2023/12/25 08:47:41;;;;;;;7.82;3.78;;;;;;;14.08;55.81;93114.63;5133570;27;20043;-74
2023/12/25 08:50:08;;;;;;;8.55;3.80;;;;;;;14.22;57.32;93116.91;5143991;27;20043;-73
2023/12/25 08:52:36;;;;;;;11.02;5.78;;;;;;;14.26;56.48;93105.84;5134484;27;20080;-73
2023/12/25 08:55:03;;;;;;;10.95;4.43;;;;;;;14.42;56.40;93099.13;5131739;27;20047;-74
2023/12/25 08:57:35;;;;;;;16.23;8.18;;;;;;;14.59;56.53;93102.72;5135880;27;20043;-74
2023/12/25 09:00:02;;;;;;;13.00;6.53;;;;;;;14.61;55.57;93090.31;5136191;27;20498;-74
2023/12/25 09:02:34;;;;;;;6.65;3.55;;;;;;;14.54;56.13;93080.94;5133157;27;20050;-73
2023/12/25 09:05:01;;;;;;;10.45;4.18;;;;;;;14.70;55.06;93083.75;5133516;27;20074;-73
2023/12/25 09:07:28;;;;;;;36.40;20.67;;;;;;;14.82;55.14;93092.19;5139157;27;20085;-73
2023/12/25 09:09:55;;;;;;;11.90;7.63;;;;;;;14.85;54.12;93096.09;5135415;27;20073;-74
2023/12/25 09:12:22;;;;;;;13.38;4.78;;;;;;;14.90;54.68;93082.47;5135613;27;20510;-74
2023/12/25 09:14:49;;;;;;;16.58;7.28;;;;;;;14.97;54.04;93090.84;5135506;27;20055;-74
2023/12/25 09:17:19;;;;;;;17.60;6.38;;;;;;;14.93;53.39;93092.34;5134658;27;20402;-74
2023/12/25 09:19:48;;;;;;;15.77;5.70;;;;;;;15.12;54.00;93086.84;5132884;27;20046;-73
2023/12/25 09:22:15;;;;;;;15.45;4.88;;;;;;;15.11;52.61;93075.75;5136232;27;20042;-73
2023/12/25 09:24:44;;;;;;;8.68;3.60;;;;;;;15.35;53.48;93085.84;5134731;27;20613;-74
2023/12/25 09:27:12;;;;;;;12.85;4.47;;;;;;;15.41;52.99;93084.09;5133655;27;20051;-73
2023/12/25 09:29:39;;;;;;;18.02;9.43;;;;;;;15.57;53.19;93080.66;5133206;27;20070;-73
2023/12/25 09:32:06;;;;;;;11.23;4.47;;;;;;;15.63;51.98;93081.47;5137603;27;20383;-73
2023/12/25 09:34:33;;;;;;;12.98;3.47;;;;;;;15.71;50.31;93080.25;5132490;27;20065;-74
2023/12/25 09:37:01;;;;;;;6.80;3.28;;;;;;;15.59;49.81;93081.19;5135628;27;20663;-74
2023/12/25 09:39:31;;;;;;;8.88;3.90;;;;;;;15.63;50.35;93061.56;5139345;27;20129;-73
2023/12/25 09:41:58;;;;;;;7.60;3.95;;;;;;;15.61;51.22;93068.75;5137174;27;20039;-74
2023/12/25 09:44:28;;;;;;;5.20;2.20;;;;;;;15.66;51.48;93068.06;5139839;27;20057;-73
2023/12/25 09:46:56;;;;;;;11.73;4.30;;;;;;;15.64;51.52;93064.91;5132650;27;20084;-73
2023/12/25 09:49:24;;;;;;;7.00;3.85;;;;;;;15.83;48.20;93065.34;5132186;27;20536;-73
2023/12/25 09:51:55;;;;;;;8.90;3.95;;;;;;;15.82;48.58;93058.59;5137923;27;20051;-74
2023/12/25 09:54:23;;;;;;;9.48;4.75;;;;;;;15.94;47.59;93042.16;5127504;27;20492;-74
2023/12/25 09:56:51;;;;;;;9.57;4.03;;;;;;;16.06;48.88;93042.75;5132375;27;20055;-74
2023/12/25 09:59:19;;;;;;;10.73;5.00;;;;;;;16.08;47.81;93040.72;5141148;27;20047;-74
2023/12/25 10:01:46;;;;;;;12.48;4.47;;;;;;;16.09;46.29;93039.69;5140706;27;20045;-74
2023/12/25 10:04:13;;;;;;;8.98;4.20;;;;;;;16.21;45.93;93046.50;5130263;27;20130;-74
2023/12/25 10:06:43;;;;;;;15.57;6.57;;;;;;;16.17;45.75;93044.38;5140276;27;20047;-74
2023/12/25 10:09:11;;;;;;;13.95;7.53;;;;;;;16.21;46.57;93042.09;5131734;27;20043;-74
2023/12/25 10:11:39;;;;;;;9.48;3.97;;;;;;;16.30;46.04;93043.19;5134272;27;20051;-74
2023/12/25 10:14:06;;;;;;;12.68;6.30;;;;;;;16.24;45.30;93046.00;5129372;27;20513;-74
2023/12/25 10:16:33;;;;;;;7.22;3.20;;;;;;;16.17;45.12;93038.44;5131416;27;20062;-74
2023/12/25 10:19:00;;;;;;;10.73;2.83;;;;;;;16.19;45.17;93035.63;5132456;27;20042;-74
2023/12/25 10:21:26;;;;;;;20.30;12.43;;;;;;;16.30;45.84;93043.19;5131321;27;20514;-74
2023/12/25 10:23:56;;;;;;;16.90;9.77;;;;;;;16.37;45.14;93040.38;5136789;27;20036;-74
2023/12/25 10:26:29;;;;;;;18.08;11.07;;;;;;;16.50;44.45;93028.81;5130262;27;20045;-74
2023/12/25 10:29:09;;;;;;;8.93;3.22;;;;;;;16.52;43.50;93029.31;5131455;27;20046;-74
2023/12/25 10:31:38;;;;;;;6.60;3.88;;;;;;;16.56;44.48;93022.63;5129918;27;20126;-74
2023/12/25 10:34:04;;;;;;;15.25;9.73;;;;;;;16.67;43.54;93027.84;5132776;27;20057;-74
2023/12/25 10:36:33;;;;;;;11.18;5.28;;;;;;;16.65;42.59;93024.72;5141356;27;20437;-74
2023/12/25 10:39:01;;;;;;;15.75;7.38;;;;;;;16.77;44.17;93027.91;5132331;27;20044;-74
2023/12/25 10:41:33;;;;;;;21.02;12.15;;;;;;;16.75;44.65;93029.97;5130269;27;20055;-74
2023/12/25 10:44:02;;;;;;;25.77;14.68;;;;;;;16.75;43.81;93018.81;5137597;27;20090;-75
2023/12/25 10:46:34;;;;;;;15.23;7.65;;;;;;;16.67;43.99;93020.84;5135523;27;20383;-75
2023/12/25 10:49:03;;;;;;;7.45;3.53;;;;;;;16.63;43.93;93016.41;5136303;27;20148;-74
2023/12/25 10:51:32;;;;;;;20.95;10.48;;;;;;;16.71;44.93;93023.72;5129849;27;20083;-74
2023/12/25 10:54:01;;;;;;;17.27;9.73;;;;;;;16.68;44.83;93022.41;5131066;27;20050;-75
2023/12/25 10:59:25;;;;;;;30.17;13.88;;;;;;;16.70;44.37;93022.94;5132329;27;20142;-74
2023/12/25 11:01:56;;;;;;;12.88;5.10;;;;;;;16.53;44.68;92986.03;5131708;27;20050;-74
2023/12/25 11:04:24;;;;;;;11.02;3.90;;;;;;;16.69;44.44;93018.00;5133428;27;20042;-75
2023/12/25 11:06:52;;;;;;;7.28;3.47;;;;;;;16.55;43.96;93008.09;5129016;27;20047;-75
2023/12/25 11:09:22;;;;;;;6.95;2.75;;;;;;;16.56;44.33;93003.69;5130581;27;20494;-74
2023/12/25 11:11:49;;;;;;;6.25;1.85;;;;;;;16.58;44.12;93011.22;5130600;27;20815;-74
2023/12/25 11:14:17;;;;;;;7.20;2.35;;;;;;;16.62;44.06;93007.84;5138904;27;20427;-74
2023/12/25 11:16:44;;;;;;;10.75;2.67;;;;;;;16.59;44.67;93013.56;5137917;27;20431;-74
2023/12/25 11:19:12;;;;;;;6.82;2.60;;;;;;;16.60;44.07;93009.94;5142013;27;20065;-74
2023/12/25 11:21:39;;;;;;;9.30;3.00;;;;;;;16.63;43.85;93008.63;5133270;27;20134;-74
2023/12/25 11:24:08;;;;;;;6.57;3.38;;;;;;;16.64;43.57;93007.59;5133338;27;20047;-75
2023/12/25 11:26:35;;;;;;;7.13;3.08;;;;;;;16.70;43.49;93006.59;5134965;27;21012;-74
2023/12/25 11:29:06;;;;;;;9.98;2.83;;;;;;;16.71;43.17;93018.53;5132406;27;20043;-74
2023/12/25 11:31:43;;;;;;;4.88;1.90;;;;;;;16.61;42.58;93014.06;5131807;27;20039;-75
2023/12/25 11:34:22;;;;;;;4.53;1.67;;;;;;;16.59;44.37;93007.56;5136753;27;20062;-74
2023/12/25 11:36:51;;;;;;;5.60;2.17;;;;;;;16.65;43.66;93011.75;5135959;27;20050;-75